createdAt,value
2022-11-17T00:00:44.886Z,95279.97
2022-11-17T00:03:16.033Z,95288.63
2022-11-17T00:05:46.394Z,95291.41
2022-11-17T00:08:14.735Z,95297.63
2022-11-17T00:10:43.209Z,95310.78
2022-11-17T00:13:30.222Z,95320.47
2022-11-17T00:15:58.629Z,95313.81
2022-11-17T00:18:45.677Z,95324.97
2022-11-17T00:21:22.136Z,95328.69
2022-11-17T00:23:51.072Z,95317.41
2022-11-17T00:26:21.584Z,95288.44
2022-11-17T00:28:54.216Z,95270.72
2022-11-17T00:31:43.398Z,95296.22
2022-11-17T00:34:15.562Z,95283.59
2022-11-17T00:36:48.523Z,95306.69
2022-11-17T00:39:18.843Z,95310.56
2022-11-17T00:41:47.825Z,95276.31
2022-11-17T00:44:16.850Z,95280.50
2022-11-17T00:46:45.225Z,95272.13
2022-11-17T00:49:15.633Z,95257.50
2022-11-17T00:51:46.541Z,95253.91
2022-11-17T00:54:15.654Z,95240.31
2022-11-17T00:56:46.197Z,95252.94
2022-11-17T00:59:18.399Z,95259.34
2022-11-17T01:01:47.624Z,95254.66
2022-11-17T01:04:20.003Z,95243.53
2022-11-17T01:06:51.681Z,95243.06
2022-11-17T01:09:23.473Z,95236.09
2022-11-17T01:11:54.054Z,95242.00
2022-11-17T01:14:25.078Z,95242.19
2022-11-17T01:16:55.458Z,95241.16
2022-11-17T01:19:25.899Z,95237.22
2022-11-17T01:21:56.301Z,95229.69
2022-11-17T01:24:24.972Z,95237.22
2022-11-17T01:26:53.577Z,95238.44
2022-11-17T01:29:23.327Z,95238.97
2022-11-17T01:31:54.165Z,95230.34
2022-11-17T01:34:22.830Z,95241.53
2022-11-17T01:37:08.548Z,95240.56
2022-11-17T01:39:38.222Z,95230.97
2022-11-17T01:42:15.165Z,95234.72
2022-11-17T01:45:00.607Z,95220.00
2022-11-17T01:47:44.020Z,95207.16
2022-11-17T01:50:26.363Z,95199.69
2022-11-17T01:53:00.116Z,95183.72
2022-11-17T01:55:35.979Z,95185.47
2022-11-17T01:58:10.580Z,95185.91
2022-11-17T02:00:39.437Z,95182.69
2022-11-17T02:03:11.339Z,95183.16
2022-11-17T02:05:51.620Z,95160.59
2022-11-17T02:08:25.063Z,95134.28
2022-11-17T02:10:55.616Z,95148.16
2022-11-17T02:13:24.828Z,95143.53
2022-11-17T02:15:54.004Z,95128.41
2022-11-17T02:18:23.562Z,95135.25
2022-11-17T02:21:23.604Z,95117.66
2022-11-17T02:24:29.867Z,95095.44
2022-11-17T02:27:33.510Z,95071.13
2022-11-17T02:30:05.260Z,95073.09
2022-11-17T02:32:46.242Z,95057.56
2022-11-17T02:35:24.377Z,95042.81
2022-11-17T02:38:02.620Z,95027.47
2022-11-17T02:40:36.425Z,95024.81
2022-11-17T02:43:30.159Z,95033.84
2022-11-17T02:46:04.538Z,95047.72
2022-11-17T02:48:36.005Z,95060.06
2022-11-17T02:51:06.687Z,95064.06
2022-11-17T02:53:36.090Z,95069.84
2022-11-17T02:56:05.127Z,95078.22
2022-11-17T02:58:36.196Z,95085.84
2022-11-17T03:01:34.243Z,95116.94
2022-11-17T03:04:23.574Z,95133.59
2022-11-17T03:07:05.059Z,95142.66
2022-11-17T03:09:48.720Z,95128.50
2022-11-17T03:12:26.299Z,95146.78
2022-11-17T03:15:04.278Z,95167.59
2022-11-17T03:17:41.209Z,95158.16
2022-11-17T03:20:15.068Z,95155.78
2022-11-17T03:22:50.273Z,95154.31
2022-11-17T03:25:23.529Z,95154.28
2022-11-17T03:27:56.362Z,95144.97
2022-11-17T03:30:26.834Z,95168.66
2022-11-17T03:33:05.155Z,95151.56
2022-11-17T03:35:38.236Z,95146.84
2022-11-17T03:39:16.819Z,95129.44
2022-11-17T03:45:56.928Z,95114.75
2022-11-17T03:48:32.529Z,95100.75
2022-11-17T03:51:09.199Z,95114.03
2022-11-17T03:53:38.542Z,95107.84
2022-11-17T03:56:20.698Z,95099.56
2022-11-17T03:58:56.902Z,95091.91
2022-11-17T04:01:28.815Z,95094.00
2022-11-17T04:03:57.242Z,95097.97
2022-11-17T04:06:25.640Z,95107.88
2022-11-17T04:08:54.313Z,95101.59
2022-11-17T04:11:40.348Z,95125.59
2022-11-17T04:14:29.022Z,95127.59
2022-11-17T04:17:00.957Z,95129.19
2022-11-17T04:19:29.238Z,95132.72
2022-11-17T04:21:57.485Z,95111.47
2022-11-17T04:24:25.812Z,95104.34
2022-11-17T04:27:11.584Z,95106.50
2022-11-17T04:29:40.342Z,95079.09
2022-11-17T04:32:10.111Z,95077.13
2022-11-17T04:34:41.612Z,95075.09
2022-11-17T04:37:17.384Z,95064.00
2022-11-17T04:39:46.525Z,95061.72
2022-11-17T04:42:13.949Z,95070.44
2022-11-17T04:44:42.889Z,95065.38
2022-11-17T04:47:12.592Z,95064.69
2022-11-17T04:49:40.883Z,95081.75
2022-11-17T04:52:09.182Z,95096.59
2022-11-17T04:54:37.685Z,95096.91
2022-11-17T04:57:05.947Z,95071.22
2022-11-17T04:59:34.240Z,95069.59
2022-11-17T05:02:05.878Z,95100.75
2022-11-17T05:04:53.704Z,95114.69
2022-11-17T05:07:22.033Z,95104.09
2022-11-17T05:09:50.325Z,95090.59
2022-11-17T05:12:36.359Z,95085.69
2022-11-17T05:15:05.136Z,95106.00
2022-11-17T05:17:32.434Z,95089.97
2022-11-17T05:20:02.406Z,95108.53
2022-11-17T05:22:48.218Z,95111.25
2022-11-17T05:25:16.872Z,95108.31
2022-11-17T05:27:47.747Z,95099.88
2022-11-17T05:30:17.053Z,95104.25
2022-11-17T05:32:45.547Z,95103.91
2022-11-17T05:35:15.446Z,95099.34
2022-11-17T05:37:43.996Z,95107.94
2022-11-17T05:40:13.122Z,95092.09
2022-11-17T05:42:41.415Z,95104.59
2022-11-17T05:45:11.128Z,95095.91
2022-11-17T05:47:39.999Z,95085.44
2022-11-17T05:50:09.167Z,95097.69
2022-11-17T05:52:38.962Z,95097.69
2022-11-17T05:55:08.870Z,95096.03
2022-11-17T05:57:37.522Z,95083.44
2022-11-17T06:00:09.028Z,95081.22
2022-11-17T06:02:43.169Z,95094.59
2022-11-17T06:05:17.066Z,95087.34
2022-11-17T06:07:50.234Z,95077.56
2022-11-17T06:10:19.436Z,95094.34
2022-11-17T06:12:48.116Z,95086.13
2022-11-17T06:15:16.740Z,95079.44
2022-11-17T06:17:51.000Z,95102.47
2022-11-17T06:20:23.813Z,95118.41
2022-11-17T06:22:56.769Z,95137.69
2022-11-17T06:25:29.352Z,95151.84
2022-11-17T06:27:59.846Z,95144.06
2022-11-17T06:30:28.412Z,95141.19
2022-11-17T06:32:57.262Z,95145.19
2022-11-17T06:35:26.695Z,95150.16
2022-11-17T06:37:56.927Z,95116.66
2022-11-17T06:40:26.449Z,95108.03
2022-11-17T06:43:10.554Z,95107.84
2022-11-17T06:45:40.874Z,95107.38
2022-11-17T06:48:11.049Z,95102.66
2022-11-17T06:50:39.517Z,95109.75
2022-11-17T06:53:12.899Z,95105.72
2022-11-17T06:55:41.821Z,95101.56
2022-11-17T06:58:12.384Z,95112.25
2022-11-17T07:00:40.995Z,95110.31
2022-11-17T07:03:11.519Z,95108.28
2022-11-17T07:05:40.661Z,95105.66
2022-11-17T07:08:10.800Z,95092.38
2022-11-17T07:10:41.657Z,95114.22
2022-11-17T07:13:12.448Z,95077.31
2022-11-17T07:15:40.983Z,95098.72
2022-11-17T07:18:09.320Z,95105.81
2022-11-17T07:20:37.780Z,95103.06
2022-11-17T07:23:06.228Z,95103.50
2022-11-17T07:25:36.265Z,95111.69
2022-11-17T07:28:06.348Z,95105.25
2022-11-17T07:30:35.202Z,95113.16
2022-11-17T07:33:03.626Z,95109.00
2022-11-17T07:35:31.947Z,95098.97
2022-11-17T07:38:01.495Z,95106.25
2022-11-17T07:40:30.543Z,95091.94
2022-11-17T07:43:01.187Z,95107.91
2022-11-17T07:45:31.800Z,95085.81
2022-11-17T07:48:02.953Z,95104.69
2022-11-17T07:50:32.116Z,95096.34
2022-11-17T07:53:02.064Z,95084.78
2022-11-17T07:55:30.464Z,95092.03
2022-11-17T07:58:02.054Z,95099.34
2022-11-17T08:00:33.720Z,95089.28
2022-11-17T08:03:04.180Z,95099.84
2022-11-17T08:05:35.865Z,95102.09
2022-11-17T08:08:09.357Z,95102.59
2022-11-17T08:10:37.880Z,95093.53
2022-11-17T08:13:07.757Z,95103.94
2022-11-17T08:15:36.986Z,95108.34
2022-11-17T08:18:06.248Z,95096.59
2022-11-17T08:20:34.589Z,95100.50
2022-11-17T08:23:02.914Z,95099.19
2022-11-17T08:25:31.274Z,95094.50
2022-11-17T08:28:00.131Z,95109.22
2022-11-17T08:30:30.591Z,95100.59
2022-11-17T08:32:58.914Z,95115.41
2022-11-17T08:35:30.682Z,95104.72
2022-11-17T08:38:01.361Z,95106.06
2022-11-17T08:40:29.711Z,95110.63
2022-11-17T08:43:01.536Z,95109.94
2022-11-17T08:45:31.614Z,95122.59
2022-11-17T08:48:00.271Z,95120.03
2022-11-17T08:50:28.824Z,95113.81
2022-11-17T08:52:57.236Z,95119.78
2022-11-17T08:55:26.428Z,95104.84
2022-11-17T08:57:54.904Z,95118.72
2022-11-17T09:00:23.772Z,95129.53
2022-11-17T09:02:53.519Z,95129.72
2022-11-17T09:05:21.986Z,95148.38
2022-11-17T09:07:50.441Z,95149.09
2022-11-17T09:10:19.480Z,95142.16
2022-11-17T09:12:47.907Z,95148.66
2022-11-17T09:15:16.517Z,95150.41
2022-11-17T09:17:47.819Z,95139.44
2022-11-17T09:20:18.856Z,95162.78
2022-11-17T09:22:47.720Z,95160.41
2022-11-17T09:25:16.988Z,95157.94
2022-11-17T09:27:45.465Z,95161.19
2022-11-17T09:30:14.493Z,95181.22
2022-11-17T09:32:42.836Z,95179.63
2022-11-17T09:35:11.321Z,95182.50
2022-11-17T09:37:40.997Z,95173.94
2022-11-17T09:40:15.235Z,95175.91
2022-11-17T09:42:43.683Z,95175.81
2022-11-17T09:45:19.555Z,95163.63
2022-11-17T09:48:12.462Z,95181.56
2022-11-17T09:50:46.486Z,95182.13
2022-11-17T09:53:26.078Z,95198.09
2022-11-17T09:55:57.921Z,95199.75
2022-11-17T09:58:34.741Z,95204.38
2022-11-17T10:01:03.427Z,95203.50
2022-11-17T10:03:38.829Z,95207.22
2022-11-17T10:06:16.329Z,95198.59
2022-11-17T10:09:00.399Z,95216.94
2022-11-17T10:11:35.959Z,95210.63
2022-11-17T10:14:14.127Z,95215.50
2022-11-17T10:16:46.002Z,95224.22
2022-11-17T10:19:20.258Z,95201.06
2022-11-17T10:21:53.308Z,95205.38
2022-11-17T10:24:42.209Z,95207.38
2022-11-17T10:27:23.298Z,95191.91
2022-11-17T10:30:03.795Z,95209.91
2022-11-17T10:32:35.694Z,95199.78
2022-11-17T10:35:20.045Z,95204.63
2022-11-17T10:37:56.539Z,95183.88
2022-11-17T10:40:29.717Z,95195.25
2022-11-17T10:43:22.042Z,95199.44
2022-11-17T10:45:53.950Z,95204.16
2022-11-17T10:48:28.315Z,95206.25
2022-11-17T10:50:58.970Z,95197.19
2022-11-17T10:53:45.062Z,95186.59
2022-11-17T10:56:21.073Z,95180.16
2022-11-17T10:59:05.227Z,95183.25
2022-11-17T11:01:37.507Z,95168.13
2022-11-17T11:04:08.677Z,95175.75
2022-11-17T11:06:37.504Z,95187.47
2022-11-17T11:09:13.185Z,95172.38
2022-11-17T11:11:47.808Z,95186.53
2022-11-17T11:14:22.887Z,95190.81
2022-11-17T11:16:52.118Z,95183.22
2022-11-17T11:19:22.145Z,95180.97
2022-11-17T11:22:21.590Z,95179.88
2022-11-17T11:24:58.451Z,95176.25
2022-11-17T11:27:46.697Z,95173.38
2022-11-17T11:30:17.255Z,95168.00
2022-11-17T11:33:02.681Z,95175.34
2022-11-17T11:35:46.503Z,95171.91
2022-11-17T11:38:39.620Z,95159.94
2022-11-17T11:41:26.050Z,95147.69
2022-11-17T11:44:15.726Z,95151.28
2022-11-17T11:46:52.824Z,95142.25
2022-11-17T11:49:32.983Z,95139.00
2022-11-17T11:52:03.483Z,95150.47
2022-11-17T11:54:40.302Z,95134.34
2022-11-17T11:57:13.843Z,95134.47
2022-11-17T11:59:53.476Z,95131.97
2022-11-17T12:02:30.317Z,95140.13
2022-11-17T12:05:09.255Z,95135.44
2022-11-17T12:07:47.238Z,95137.78
2022-11-17T12:10:22.584Z,95125.91
2022-11-17T12:12:52.091Z,95126.59
2022-11-17T12:15:35.792Z,95117.31
2022-11-17T12:18:13.097Z,95130.63
2022-11-17T12:20:58.184Z,95140.91
2022-11-17T12:24:15.796Z,95133.53
2022-11-17T12:26:46.269Z,95126.38
2022-11-17T12:29:34.481Z,95129.19
2022-11-17T12:32:05.054Z,95128.13
2022-11-17T12:34:37.269Z,95130.00
2022-11-17T12:37:26.544Z,95125.88
2022-11-17T12:40:07.930Z,95116.44
2022-11-17T12:42:37.753Z,95127.72
2022-11-17T12:45:12.058Z,95124.50
2022-11-17T12:47:59.212Z,95119.44
2022-11-17T12:50:50.992Z,95132.28
2022-11-17T12:53:34.408Z,95140.69
2022-11-17T12:56:57.666Z,95141.69
2022-11-17T13:00:15.031Z,95132.19
2022-11-17T13:03:00.765Z,95140.19
2022-11-17T13:05:36.796Z,95136.34
2022-11-17T13:08:24.366Z,95128.25
2022-11-17T13:11:06.700Z,95125.47
2022-11-17T13:13:37.112Z,95127.38
2022-11-17T13:16:06.787Z,95123.81
2022-11-17T13:18:42.032Z,95124.97
2022-11-17T13:21:30.073Z,95122.09
2022-11-17T13:24:01.453Z,95117.03
2022-11-17T13:26:35.962Z,95121.38
2022-11-17T13:29:07.975Z,95114.94
2022-11-17T13:31:36.582Z,95117.69
2022-11-17T13:34:14.237Z,95119.66
2022-11-17T13:36:54.929Z,95122.28
2022-11-17T13:39:27.317Z,95121.91
2022-11-17T13:41:56.816Z,95124.78
2022-11-17T13:44:28.776Z,95105.22
2022-11-17T13:46:59.225Z,95109.75
2022-11-17T13:49:38.654Z,95122.97
2022-11-17T13:52:15.510Z,95106.19
2022-11-17T13:54:46.206Z,95106.06
2022-11-17T13:57:25.115Z,95114.63
2022-11-17T13:59:53.756Z,95112.88
2022-11-17T14:02:29.458Z,95108.50
2022-11-17T14:05:25.830Z,95105.66
2022-11-17T14:07:56.886Z,95098.00
2022-11-17T14:10:33.044Z,95102.25
2022-11-17T14:13:26.527Z,95100.34
2022-11-17T14:16:01.131Z,95107.47
2022-11-17T14:18:34.157Z,95117.31
2022-11-17T14:21:15.024Z,95116.19
2022-11-17T14:23:44.727Z,95109.28
2022-11-17T14:26:20.884Z,95099.84
2022-11-17T14:28:50.777Z,95096.56
2022-11-17T14:31:19.989Z,95091.06
2022-11-17T14:33:50.491Z,95100.09
2022-11-17T14:36:20.494Z,95107.16
2022-11-17T14:38:49.644Z,95100.94
2022-11-17T14:41:19.475Z,95111.84
2022-11-17T14:43:48.556Z,95117.63
2022-11-17T14:46:21.585Z,95122.41
2022-11-17T14:48:50.208Z,95126.06
2022-11-17T14:51:21.022Z,95121.13
2022-11-17T14:53:49.933Z,95123.84
2022-11-17T14:56:21.764Z,95123.00
2022-11-17T14:58:56.367Z,95125.59
2022-11-17T15:01:29.070Z,95119.34
2022-11-17T15:03:58.944Z,95137.44
2022-11-17T15:06:29.351Z,95138.13
2022-11-17T15:09:00.132Z,95141.53
2022-11-17T15:11:39.249Z,95131.56
2022-11-17T15:14:08.295Z,95128.25
2022-11-17T15:16:37.660Z,95138.13
2022-11-17T15:19:06.851Z,95134.53
2022-11-17T15:21:36.781Z,95116.06
2022-11-17T15:24:06.520Z,95111.09
2022-11-17T15:26:35.812Z,95111.25
2022-11-17T15:29:04.252Z,95115.19
2022-11-17T15:31:32.859Z,95118.44
2022-11-17T15:34:02.849Z,95095.28
2022-11-17T15:36:31.948Z,95090.81
2022-11-17T15:39:02.015Z,95104.13
2022-11-17T15:41:32.977Z,95113.59
2022-11-17T15:44:01.795Z,95100.22
2022-11-17T15:46:30.122Z,95091.47
2022-11-17T15:48:58.562Z,95095.31
2022-11-17T15:51:29.020Z,95094.44
2022-11-17T15:53:59.819Z,95087.59
2022-11-17T15:56:32.178Z,95096.88
2022-11-17T15:59:03.253Z,95097.53
2022-11-17T16:01:35.504Z,95088.66
2022-11-17T16:04:06.128Z,95096.06
2022-11-17T16:06:39.283Z,95094.53
2022-11-17T16:09:08.348Z,95097.44
2022-11-17T16:11:38.729Z,95091.41
2022-11-17T16:14:08.049Z,95093.09
2022-11-17T16:16:39.586Z,95085.38
2022-11-17T16:19:08.900Z,95089.66
2022-11-17T16:21:37.191Z,95077.75
2022-11-17T16:24:08.262Z,95079.25
2022-11-17T16:26:38.354Z,95074.31
2022-11-17T16:29:08.917Z,95066.41
2022-11-17T16:31:39.762Z,95067.56
2022-11-17T16:34:12.876Z,95070.44
2022-11-17T16:36:43.739Z,95068.00
2022-11-17T16:39:14.670Z,95072.03
2022-11-17T16:41:46.477Z,95067.78
2022-11-17T16:44:20.123Z,95058.31
2022-11-17T16:46:50.818Z,95058.00
2022-11-17T16:49:20.752Z,95068.84
2022-11-17T16:51:51.471Z,95067.47
2022-11-17T16:54:20.385Z,95067.31
2022-11-17T16:56:50.350Z,95072.97
2022-11-17T16:59:18.966Z,95069.16
2022-11-17T17:01:47.729Z,95073.75
2022-11-17T17:04:16.242Z,95072.44
2022-11-17T17:06:46.370Z,95064.13
2022-11-17T17:09:17.211Z,95076.19
2022-11-17T17:11:47.111Z,95062.69
2022-11-17T17:14:17.799Z,95084.53
2022-11-17T17:16:46.258Z,95078.38
2022-11-17T17:19:16.574Z,95088.50
2022-11-17T17:21:45.701Z,95086.78
2022-11-17T17:24:14.537Z,95086.38
2022-11-17T17:26:42.926Z,95098.19
2022-11-17T17:29:12.538Z,95093.75
2022-11-17T17:31:43.492Z,95085.66
2022-11-17T17:34:14.983Z,95092.41
2022-11-17T17:36:43.893Z,95104.63
2022-11-17T17:39:16.291Z,95104.91
2022-11-17T17:41:46.114Z,95101.94
2022-11-17T17:44:17.859Z,95097.59
2022-11-17T17:46:48.727Z,95096.88
2022-11-17T17:49:19.001Z,95092.56
2022-11-17T17:51:47.824Z,95098.81
2022-11-17T17:54:18.746Z,95114.75
2022-11-17T17:56:49.537Z,95094.66
2022-11-17T17:59:19.040Z,95088.47
2022-11-17T18:01:49.686Z,95091.94
2022-11-17T18:04:18.050Z,95085.22
2022-11-17T18:06:48.283Z,95078.03
2022-11-17T18:09:19.497Z,95101.09
2022-11-17T18:11:50.116Z,95094.59
2022-11-17T18:14:22.407Z,95104.72
2022-11-17T18:16:52.726Z,95094.31
2022-11-17T18:19:21.144Z,95086.53
2022-11-17T18:21:49.462Z,95079.28
2022-11-17T18:24:17.956Z,95082.16
2022-11-17T18:26:46.327Z,95094.38
2022-11-17T18:29:18.412Z,95099.38
2022-11-17T18:31:49.373Z,95116.03
2022-11-17T18:34:21.857Z,95109.06
2022-11-17T18:36:50.930Z,95128.88
2022-11-17T18:39:21.455Z,95119.34
2022-11-17T18:41:56.762Z,95126.38
2022-11-17T18:44:25.103Z,95117.97
2022-11-17T18:46:55.020Z,95100.25
2022-11-17T18:49:28.063Z,95106.53
2022-11-17T18:51:56.559Z,95104.75
2022-11-17T18:54:24.903Z,95113.16
2022-11-17T18:56:53.369Z,95130.91
2022-11-17T18:59:21.883Z,95157.97
2022-11-17T19:01:51.774Z,95159.66
2022-11-17T19:04:20.573Z,95160.78
2022-11-17T19:06:50.956Z,95168.94
2022-11-17T19:09:21.314Z,95165.25
2022-11-17T19:11:49.595Z,95173.28
2022-11-17T19:14:18.021Z,95173.50
2022-11-17T19:16:46.512Z,95167.81
2022-11-17T19:19:15.660Z,95173.38
2022-11-17T19:21:44.539Z,95176.69
2022-11-17T19:24:15.279Z,95183.28
2022-11-17T19:26:44.026Z,95183.03
2022-11-17T19:29:17.259Z,95199.53
2022-11-17T19:31:47.504Z,95217.31
2022-11-17T19:34:16.357Z,95220.50
2022-11-17T19:36:45.429Z,95226.00
2022-11-17T19:39:17.039Z,95235.91
2022-11-17T19:41:47.660Z,95239.34
2022-11-17T19:44:16.111Z,95251.09
2022-11-17T19:46:44.454Z,95249.66
2022-11-17T19:49:14.009Z,95265.31
2022-11-17T19:51:42.556Z,95260.75
2022-11-17T19:54:12.023Z,95263.53
2022-11-17T19:56:41.989Z,95273.91
2022-11-17T19:59:15.565Z,95286.19
2022-11-17T20:01:46.785Z,95291.34
2022-11-17T20:04:15.655Z,95286.06
2022-11-17T20:06:44.156Z,95281.50
2022-11-17T20:09:15.058Z,95298.81
2022-11-17T20:11:45.454Z,95308.84
2022-11-17T20:14:14.532Z,95308.19
2022-11-17T20:16:43.148Z,95320.78
2022-11-17T20:19:12.308Z,95327.59
2022-11-17T20:21:40.908Z,95311.41
2022-11-17T20:24:09.998Z,95304.59
2022-11-17T20:26:40.846Z,95310.38
2022-11-17T20:29:10.709Z,95305.81
2022-11-17T20:31:39.173Z,95291.03
2022-11-17T20:34:07.786Z,95283.31
2022-11-17T20:36:36.445Z,95259.38
2022-11-17T20:39:07.804Z,95239.59
2022-11-17T20:41:36.720Z,95272.88
2022-11-17T20:44:05.497Z,95255.97
2022-11-17T20:46:35.434Z,95266.56
2022-11-17T20:49:03.764Z,95269.75
2022-11-17T20:51:34.552Z,95255.97
2022-11-17T20:54:04.114Z,95244.22
2022-11-17T20:56:32.621Z,95247.63
2022-11-17T20:59:01.454Z,95257.31
2022-11-17T21:01:29.865Z,95251.06
2022-11-17T21:03:59.751Z,95266.97
2022-11-17T21:06:29.646Z,95262.59
2022-11-17T21:08:57.909Z,95259.50
2022-11-17T21:11:43.914Z,95264.53
2022-11-17T21:14:14.381Z,95263.53
2022-11-17T21:16:45.673Z,95264.66
2022-11-17T21:19:16.541Z,95254.34
2022-11-17T21:21:45.353Z,95270.34
2022-11-17T21:24:14.501Z,95265.47
2022-11-17T21:26:43.219Z,95271.34
2022-11-17T21:29:11.546Z,95283.91
2022-11-17T21:31:39.899Z,95272.41
2022-11-17T21:34:08.832Z,95289.75
2022-11-17T21:36:38.580Z,95284.13
2022-11-17T21:39:06.994Z,95280.88
2022-11-17T21:41:37.846Z,95275.28
2022-11-17T21:44:06.737Z,95280.81
2022-11-17T21:46:36.253Z,95293.97
2022-11-17T21:49:05.087Z,95287.16
2022-11-17T21:51:39.008Z,95272.84
2022-11-17T21:54:09.756Z,95280.41
2022-11-17T21:56:38.345Z,95288.44
2022-11-17T21:59:11.304Z,95397.78
2022-11-17T22:01:40.428Z,95288.97
2022-11-17T22:04:16.516Z,95264.06
2022-11-17T22:06:46.808Z,95269.19
2022-11-17T22:09:15.449Z,95266.56
2022-11-17T22:11:44.020Z,95262.00
2022-11-17T22:14:14.766Z,95250.56
2022-11-17T22:16:45.025Z,95254.63
2022-11-17T22:19:14.936Z,95247.63
2022-11-17T22:21:46.119Z,95248.91
2022-11-17T22:24:14.852Z,95246.41
2022-11-17T22:26:45.601Z,95252.78
2022-11-17T22:29:17.817Z,95242.00
2022-11-17T22:31:48.549Z,95237.56
2022-11-17T22:34:19.247Z,95240.13
2022-11-17T22:36:51.411Z,95235.91
2022-11-17T22:39:20.248Z,95239.94
2022-11-17T22:41:48.862Z,95247.03
2022-11-17T22:44:19.528Z,95249.41
2022-11-17T22:46:49.064Z,95245.88
2022-11-17T22:49:17.930Z,95246.59
2022-11-17T22:52:07.655Z,95237.00
2022-11-17T22:54:36.294Z,95245.53
2022-11-17T22:57:05.827Z,95241.22
2022-11-17T22:59:38.220Z,95251.19
2022-11-17T23:02:06.540Z,95235.50
2022-11-17T23:04:34.974Z,95228.22
2022-11-17T23:07:04.776Z,95224.50
2022-11-17T23:09:33.105Z,95225.72
2022-11-17T23:12:02.461Z,95220.50
2022-11-17T23:14:30.967Z,95223.13
2022-11-17T23:16:59.462Z,95234.31
2022-11-17T23:19:27.761Z,95234.66
2022-11-17T23:21:56.102Z,95233.03
2022-11-17T23:24:25.971Z,95248.28
2022-11-17T23:26:54.334Z,95241.00
2022-11-17T23:29:22.823Z,95248.97
2022-11-17T23:31:51.211Z,95239.56
2022-11-17T23:34:27.626Z,95235.34
2022-11-17T23:37:04.290Z,95232.69
2022-11-17T23:39:34.395Z,95238.22
2022-11-17T23:42:03.091Z,95231.63
2022-11-17T23:44:31.849Z,95384.59
2022-11-17T23:47:00.198Z,95184.31
2022-11-17T23:49:28.536Z,95216.31
2022-11-17T23:51:56.851Z,95211.94
2022-11-17T23:54:25.916Z,95202.63
2022-11-17T23:56:55.732Z,95203.44
2022-11-17T23:59:24.147Z,95198.16
